sensor_id;sensor_type;location;lat;lon;timestamp;P1;durP1;ratioP1;P2;durP2;ratioP2
13685;SDS011;6915;48.296;8.874;2023-03-26T03:28:06;5.67;;;1.50;;
13685;SDS011;6915;48.296;8.874;2023-03-26T03:30:36;7.00;;;1.17;;
13685;SDS011;6915;48.296;8.874;2023-03-26T03:33:05;8.17;;;1.73;;
13685;SDS011;6915;48.296;8.874;2023-03-26T03:35:34;4.67;;;1.27;;
13685;SDS011;6915;48.296;8.874;2023-03-26T03:38:05;5.90;;;1.47;;
13685;SDS011;6915;48.296;8.874;2023-03-26T03:40:35;5.37;;;1.80;;
13685;SDS011;6915;48.296;8.874;2023-03-26T03:43:05;3.90;;;1.17;;
13685;SDS011;6915;48.296;8.874;2023-03-26T03:45:34;4.83;;;1.30;;
13685;SDS011;6915;48.296;8.874;2023-03-26T03:48:03;5.83;;;1.20;;
13685;SDS011;6915;48.296;8.874;2023-03-26T03:50:32;3.37;;;1.57;;
13685;SDS011;6915;48.296;8.874;2023-03-26T03:53:02;5.33;;;1.10;;
13685;SDS011;6915;48.296;8.874;2023-03-26T03:55:31;4.90;;;1.70;;
13685;SDS011;6915;48.296;8.874;2023-03-26T03:58:02;7.47;;;1.50;;
13685;SDS011;6915;48.296;8.874;2023-03-26T04:00:34;4.47;;;1.37;;
13685;SDS011;6915;48.296;8.874;2023-03-26T04:03:05;5.63;;;1.27;;
13685;SDS011;6915;48.296;8.874;2023-03-26T04:05:38;4.77;;;1.90;;
13685;SDS011;6915;48.296;8.874;2023-03-26T04:08:09;6.43;;;1.73;;
13685;SDS011;6915;48.296;8.874;2023-03-26T04:10:38;4.70;;;1.40;;
13685;SDS011;6915;48.296;8.874;2023-03-26T04:13:07;2.97;;;1.40;;
13685;SDS011;6915;48.296;8.874;2023-03-26T04:15:38;5.47;;;1.57;;
13685;SDS011;6915;48.296;8.874;2023-03-26T04:18:08;4.47;;;1.53;;
13685;SDS011;6915;48.296;8.874;2023-03-26T04:20:37;5.67;;;2.00;;
13685;SDS011;6915;48.296;8.874;2023-03-26T04:23:10;9.93;;;2.37;;
13685;SDS011;6915;48.296;8.874;2023-03-26T04:25:40;4.53;;;1.87;;
13685;SDS011;6915;48.296;8.874;2023-03-26T04:28:13;5.33;;;1.60;;
13685;SDS011;6915;48.296;8.874;2023-03-26T04:30:52;7.13;;;1.90;;
13685;SDS011;6915;48.296;8.874;2023-03-26T04:33:25;3.57;;;1.50;;
13685;SDS011;6915;48.296;8.874;2023-03-26T04:35:55;9.73;;;1.90;;
13685;SDS011;6915;48.296;8.874;2023-03-26T04:38:27;5.67;;;1.83;;
13685;SDS011;6915;48.296;8.874;2023-03-26T04:40:59;4.17;;;1.47;;
13685;SDS011;6915;48.296;8.874;2023-03-26T04:43:32;4.87;;;1.30;;
13685;SDS011;6915;48.296;8.874;2023-03-26T04:46:02;3.23;;;1.30;;
13685;SDS011;6915;48.296;8.874;2023-03-26T04:48:32;8.83;;;1.57;;
13685;SDS011;6915;48.296;8.874;2023-03-26T04:51:02;6.40;;;1.57;;
13685;SDS011;6915;48.296;8.874;2023-03-26T04:53:33;4.37;;;1.07;;
13685;SDS011;6915;48.296;8.874;2023-03-26T04:56:04;4.57;;;1.10;;
13685;SDS011;6915;48.296;8.874;2023-03-26T04:58:38;5.27;;;1.30;;
13685;SDS011;6915;48.296;8.874;2023-03-26T05:01:09;6.77;;;0.90;;
13685;SDS011;6915;48.296;8.874;2023-03-26T05:03:41;3.93;;;1.10;;
13685;SDS011;6915;48.296;8.874;2023-03-26T05:06:10;3.27;;;1.10;;
13685;SDS011;6915;48.296;8.874;2023-03-26T05:08:39;5.10;;;1.30;;
13685;SDS011;6915;48.296;8.874;2023-03-26T05:11:08;5.07;;;1.13;;
13685;SDS011;6915;48.296;8.874;2023-03-26T05:13:37;5.40;;;1.33;;
13685;SDS011;6915;48.296;8.874;2023-03-26T05:16:09;4.27;;;1.40;;
13685;SDS011;6915;48.296;8.874;2023-03-26T05:18:38;6.20;;;2.47;;
13685;SDS011;6915;48.296;8.874;2023-03-26T05:21:07;14.47;;;6.27;;
13685;SDS011;6915;48.296;8.874;2023-03-26T05:23:39;22.83;;;10.83;;
13685;SDS011;6915;48.296;8.874;2023-03-26T05:26:08;7.33;;;3.77;;
13685;SDS011;6915;48.296;8.874;2023-03-26T05:28:37;6.93;;;3.73;;
13685;SDS011;6915;48.296;8.874;2023-03-26T05:31:06;6.57;;;1.90;;
13685;SDS011;6915;48.296;8.874;2023-03-26T05:33:35;4.67;;;1.60;;
13685;SDS011;6915;48.296;8.874;2023-03-26T05:36:04;4.67;;;1.50;;
13685;SDS011;6915;48.296;8.874;2023-03-26T05:38:33;4.80;;;1.60;;
13685;SDS011;6915;48.296;8.874;2023-03-26T05:41:03;9.00;;;1.73;;
13685;SDS011;6915;48.296;8.874;2023-03-26T05:43:33;6.37;;;1.73;;
13685;SDS011;6915;48.296;8.874;2023-03-26T05:46:02;5.37;;;1.90;;
13685;SDS011;6915;48.296;8.874;2023-03-26T05:48:33;5.67;;;1.40;;
13685;SDS011;6915;48.296;8.874;2023-03-26T05:51:02;5.57;;;1.57;;
13685;SDS011;6915;48.296;8.874;2023-03-26T05:53:32;6.67;;;1.40;;
13685;SDS011;6915;48.296;8.874;2023-03-26T05:56:01;5.10;;;1.10;;
13685;SDS011;6915;48.296;8.874;2023-03-26T05:58:31;4.47;;;1.23;;
13685;SDS011;6915;48.296;8.874;2023-03-26T06:01:01;7.07;;;1.70;;
13685;SDS011;6915;48.296;8.874;2023-03-26T06:03:34;4.57;;;1.30;;
13685;SDS011;6915;48.296;8.874;2023-03-26T06:06:05;7.70;;;3.80;;
13685;SDS011;6915;48.296;8.874;2023-03-26T06:08:39;8.17;;;4.00;;
13685;SDS011;6915;48.296;8.874;2023-03-26T06:11:10;8.27;;;2.90;;
13685;SDS011;6915;48.296;8.874;2023-03-26T06:13:40;5.20;;;1.70;;
13685;SDS011;6915;48.296;8.874;2023-03-26T06:16:10;12.07;;;1.80;;
13685;SDS011;6915;48.296;8.874;2023-03-26T06:18:42;7.03;;;1.80;;
13685;SDS011;6915;48.296;8.874;2023-03-26T06:21:11;6.87;;;1.63;;
13685;SDS011;6915;48.296;8.874;2023-03-26T06:23:40;6.73;;;1.93;;
13685;SDS011;6915;48.296;8.874;2023-03-26T06:26:09;5.87;;;1.67;;
13685;SDS011;6915;48.296;8.874;2023-03-26T06:28:37;4.07;;;1.33;;
13685;SDS011;6915;48.296;8.874;2023-03-26T06:31:06;2.73;;;1.37;;
13685;SDS011;6915;48.296;8.874;2023-03-26T06:33:35;7.00;;;1.60;;
13685;SDS011;6915;48.296;8.874;2023-03-26T06:36:06;5.50;;;1.80;;
13685;SDS011;6915;48.296;8.874;2023-03-26T06:38:35;6.63;;;2.07;;
13685;SDS011;6915;48.296;8.874;2023-03-26T06:41:04;4.73;;;1.60;;
13685;SDS011;6915;48.296;8.874;2023-03-26T06:43:34;5.87;;;1.23;;
13685;SDS011;6915;48.296;8.874;2023-03-26T06:46:04;5.17;;;1.50;;
13685;SDS011;6915;48.296;8.874;2023-03-26T06:48:32;5.17;;;1.40;;
13685;SDS011;6915;48.296;8.874;2023-03-26T06:51:01;6.17;;;1.80;;
13685;SDS011;6915;48.296;8.874;2023-03-26T06:53:33;3.67;;;1.37;;
13685;SDS011;6915;48.296;8.874;2023-03-26T06:56:02;3.03;;;1.47;;
13685;SDS011;6915;48.296;8.874;2023-03-26T06:58:34;4.80;;;1.60;;
13685;SDS011;6915;48.296;8.874;2023-03-26T07:01:03;5.77;;;1.87;;
13685;SDS011;6915;48.296;8.874;2023-03-26T07:03:31;6.13;;;2.30;;
13685;SDS011;6915;48.296;8.874;2023-03-26T07:06:00;6.53;;;1.90;;
13685;SDS011;6915;48.296;8.874;2023-03-26T07:08:29;4.33;;;1.97;;
13685;SDS011;6915;48.296;8.874;2023-03-26T07:10:59;4.23;;;2.10;;
13685;SDS011;6915;48.296;8.874;2023-03-26T07:13:28;6.67;;;2.83;;
13685;SDS011;6915;48.296;8.874;2023-03-26T07:15:56;4.40;;;1.90;;
13685;SDS011;6915;48.296;8.874;2023-03-26T07:18:25;4.80;;;1.40;;
13685;SDS011;6915;48.296;8.874;2023-03-26T07:20:54;4.23;;;1.40;;
13685;SDS011;6915;48.296;8.874;2023-03-26T07:23:23;3.37;;;1.30;;
13685;SDS011;6915;48.296;8.874;2023-03-26T07:25:54;7.60;;;3.60;;
13685;SDS011;6915;48.296;8.874;2023-03-26T07:28:27;14.40;;;8.57;;
13685;SDS011;6915;48.296;8.874;2023-03-26T07:31:04;4.83;;;3.50;;
13685;SDS011;6915;48.296;8.874;2023-03-26T07:33:42;3.13;;;1.70;;
13685;SDS011;6915;48.296;8.874;2023-03-26T07:36:20;4.30;;;2.17;;
13685;SDS011;6915;48.296;8.874;2023-03-26T07:38:58;2.77;;;1.50;;
13685;SDS011;6915;48.296;8.874;2023-03-26T07:41:37;4.10;;;1.27;;
13685;SDS011;6915;48.296;8.874;2023-03-26T07:44:24;3.30;;;1.50;;
13685;SDS011;6915;48.296;8.874;2023-03-26T07:47:08;2.67;;;1.50;;
13685;SDS011;6915;48.296;8.874;2023-03-26T07:49:50;4.63;;;1.90;;
13685;SDS011;6915;48.296;8.874;2023-03-26T07:52:18;3.17;;;1.53;;
13685;SDS011;6915;48.296;8.874;2023-03-26T07:54:49;4.17;;;2.27;;
13685;SDS011;6915;48.296;8.874;2023-03-26T07:57:21;4.70;;;2.17;;
13685;SDS011;6915;48.296;8.874;2023-03-26T08:00:00;8.30;;;2.50;;
13685;SDS011;6915;48.296;8.874;2023-03-26T08:02:41;3.83;;;2.57;;
13685;SDS011;6915;48.296;8.874;2023-03-26T08:05:22;3.47;;;2.33;;
13685;SDS011;6915;48.296;8.874;2023-03-26T08:07:57;4.37;;;1.93;;
13685;SDS011;6915;48.296;8.874;2023-03-26T08:10:34;2.03;;;1.10;;
13685;SDS011;6915;48.296;8.874;2023-03-26T08:13:13;4.13;;;1.30;;
13685;SDS011;6915;48.296;8.874;2023-03-26T08:15:48;7.27;;;5.20;;
13685;SDS011;6915;48.296;8.874;2023-03-26T08:18:27;1.03;;;0.93;;
13685;SDS011;6915;48.296;8.874;2023-03-26T08:21:05;3.20;;;0.97;;
13685;SDS011;6915;48.296;8.874;2023-03-26T08:23:36;1.30;;;0.93;;
13685;SDS011;6915;48.296;8.874;2023-03-26T08:26:12;1.57;;;1.20;;
13685;SDS011;6915;48.296;8.874;2023-03-26T08:28:52;8.40;;;5.27;;
13685;SDS011;6915;48.296;8.874;2023-03-26T08:31:32;7.10;;;3.50;;
13685;SDS011;6915;48.296;8.874;2023-03-26T08:34:03;3.00;;;2.20;;
13685;SDS011;6915;48.296;8.874;2023-03-26T08:36:35;2.90;;;1.70;;
13685;SDS011;6915;48.296;8.874;2023-03-26T08:39:04;1.83;;;1.30;;
13685;SDS011;6915;48.296;8.874;2023-03-26T08:51:02;1.30;;;0.90;;
13685;SDS011;6915;48.296;8.874;2023-03-26T08:57:12;1.70;;;0.80;;
13685;SDS011;6915;48.296;8.874;2023-03-26T09:00:08;1.43;;;1.13;;
13685;SDS011;6915;48.296;8.874;2023-03-26T09:05:51;1.70;;;1.20;;
13685;SDS011;6915;48.296;8.874;2023-03-26T09:12:01;1.83;;;0.87;;
13685;SDS011;6915;48.296;8.874;2023-03-26T09:20:53;1.53;;;0.90;;
13685;SDS011;6915;48.296;8.874;2023-03-26T09:23:47;1.90;;;1.57;;
13685;SDS011;6915;48.296;8.874;2023-03-26T09:26:56;1.17;;;0.80;;
13685;SDS011;6915;48.296;8.874;2023-03-26T09:29:39;1.83;;;0.80;;
13685;SDS011;6915;48.296;8.874;2023-03-26T09:32:41;1.73;;;1.17;;
13685;SDS011;6915;48.296;8.874;2023-03-26T09:38:43;1.40;;;1.23;;
13685;SDS011;6915;48.296;8.874;2023-03-26T09:41:19;0.57;;;0.50;;
13685;SDS011;6915;48.296;8.874;2023-03-26T09:44:00;1.13;;;0.73;;
13685;SDS011;6915;48.296;8.874;2023-03-26T09:46:45;2.03;;;0.70;;
13685;SDS011;6915;48.296;8.874;2023-03-26T09:49:20;1.03;;;0.83;;
13685;SDS011;6915;48.296;8.874;2023-03-26T09:52:20;3.07;;;1.97;;
13685;SDS011;6915;48.296;8.874;2023-03-26T09:55:18;0.87;;;0.70;;
13685;SDS011;6915;48.296;8.874;2023-03-26T10:00:54;1.57;;;0.80;;
13685;SDS011;6915;48.296;8.874;2023-03-26T10:03:32;1.30;;;0.73;;
13685;SDS011;6915;48.296;8.874;2023-03-26T10:06:25;1.63;;;0.70;;
13685;SDS011;6915;48.296;8.874;2023-03-26T10:09:08;2.73;;;0.70;;
13685;SDS011;6915;48.296;8.874;2023-03-26T10:12:00;1.27;;;0.73;;
13685;SDS011;6915;48.296;8.874;2023-03-26T10:14:47;1.80;;;0.77;;
13685;SDS011;6915;48.296;8.874;2023-03-26T10:17:30;2.73;;;0.90;;
13685;SDS011;6915;48.296;8.874;2023-03-26T10:20:14;2.67;;;0.60;;
13685;SDS011;6915;48.296;8.874;2023-03-26T10:22:55;1.23;;;0.60;;
13685;SDS011;6915;48.296;8.874;2023-03-26T10:25:40;2.07;;;0.67;;
13685;SDS011;6915;48.296;8.874;2023-03-26T10:28:28;3.30;;;0.80;;
13685;SDS011;6915;48.296;8.874;2023-03-26T10:31:15;1.50;;;0.70;;
13685;SDS011;6915;48.296;8.874;2023-03-26T10:34:03;1.90;;;0.67;;
13685;SDS011;6915;48.296;8.874;2023-03-26T10:36:40;0.90;;;0.67;;
13685;SDS011;6915;48.296;8.874;2023-03-26T10:42:30;2.37;;;0.70;;
13685;SDS011;6915;48.296;8.874;2023-03-26T10:45:27;2.53;;;0.70;;
13685;SDS011;6915;48.296;8.874;2023-03-26T10:48:11;2.07;;;0.60;;
13685;SDS011;6915;48.296;8.874;2023-03-26T10:50:53;1.43;;;0.50;;
13685;SDS011;6915;48.296;8.874;2023-03-26T10:53:33;1.23;;;0.70;;
13685;SDS011;6915;48.296;8.874;2023-03-26T10:56:11;0.90;;;0.73;;
13685;SDS011;6915;48.296;8.874;2023-03-26T10:58:45;1.50;;;0.53;;
13685;SDS011;6915;48.296;8.874;2023-03-26T11:01:16;1.10;;;0.70;;
13685;SDS011;6915;48.296;8.874;2023-03-26T11:03:51;0.70;;;0.60;;
13685;SDS011;6915;48.296;8.874;2023-03-26T11:06:26;2.67;;;1.00;;
13685;SDS011;6915;48.296;8.874;2023-03-26T11:09:01;3.47;;;0.53;;
13685;SDS011;6915;48.296;8.874;2023-03-26T11:11:40;0.80;;;0.50;;
13685;SDS011;6915;48.296;8.874;2023-03-26T11:14:15;1.77;;;0.67;;
13685;SDS011;6915;48.296;8.874;2023-03-26T11:16:52;1.93;;;0.70;;
13685;SDS011;6915;48.296;8.874;2023-03-26T11:19:29;1.00;;;0.70;;
13685;SDS011;6915;48.296;8.874;2023-03-26T11:22:02;1.27;;;0.47;;
13685;SDS011;6915;48.296;8.874;2023-03-26T11:27:34;0.83;;;0.50;;
13685;SDS011;6915;48.296;8.874;2023-03-26T11:30:15;0.33;;;0.30;;
13685;SDS011;6915;48.296;8.874;2023-03-26T11:32:50;0.50;;;0.30;;
13685;SDS011;6915;48.296;8.874;2023-03-26T11:35:24;1.40;;;0.33;;
13685;SDS011;6915;48.296;8.874;2023-03-26T11:38:00;1.37;;;0.30;;
13685;SDS011;6915;48.296;8.874;2023-03-26T11:40:32;0.70;;;0.70;;
13685;SDS011;6915;48.296;8.874;2023-03-26T11:43:04;1.03;;;0.70;;
13685;SDS011;6915;48.296;8.874;2023-03-26T11:45:38;2.67;;;0.70;;
13685;SDS011;6915;48.296;8.874;2023-03-26T11:48:11;1.10;;;0.80;;
13685;SDS011;6915;48.296;8.874;2023-03-26T11:50:46;1.17;;;0.57;;
13685;SDS011;6915;48.296;8.874;2023-03-26T11:53:18;1.07;;;0.60;;
13685;SDS011;6915;48.296;8.874;2023-03-26T11:55:52;2.03;;;0.97;;
13685;SDS011;6915;48.296;8.874;2023-03-26T11:58:26;1.93;;;0.70;;
13685;SDS011;6915;48.296;8.874;2023-03-26T12:01:02;1.23;;;0.80;;
13685;SDS011;6915;48.296;8.874;2023-03-26T12:03:38;1.80;;;1.00;;
13685;SDS011;6915;48.296;8.874;2023-03-26T12:06:20;1.83;;;0.90;;
13685;SDS011;6915;48.296;8.874;2023-03-26T12:08:53;3.63;;;1.10;;
13685;SDS011;6915;48.296;8.874;2023-03-26T12:11:23;1.30;;;0.80;;
13685;SDS011;6915;48.296;8.874;2023-03-26T12:13:57;3.70;;;1.00;;
13685;SDS011;6915;48.296;8.874;2023-03-26T12:16:28;2.20;;;0.73;;
13685;SDS011;6915;48.296;8.874;2023-03-26T12:18:58;3.53;;;0.80;;
13685;SDS011;6915;48.296;8.874;2023-03-26T12:21:31;3.07;;;0.87;;
13685;SDS011;6915;48.296;8.874;2023-03-26T12:24:23;2.77;;;0.80;;
13685;SDS011;6915;48.296;8.874;2023-03-26T12:26:55;2.63;;;0.80;;
13685;SDS011;6915;48.296;8.874;2023-03-26T12:29:26;3.40;;;1.17;;
13685;SDS011;6915;48.296;8.874;2023-03-26T12:32:04;1.83;;;1.00;;
13685;SDS011;6915;48.296;8.874;2023-03-26T12:34:38;2.73;;;0.93;;
13685;SDS011;6915;48.296;8.874;2023-03-26T12:37:30;2.47;;;0.80;;
13685;SDS011;6915;48.296;8.874;2023-03-26T12:40:04;4.10;;;0.87;;
13685;SDS011;6915;48.296;8.874;2023-03-26T12:42:38;2.97;;;1.13;;
13685;SDS011;6915;48.296;8.874;2023-03-26T12:45:11;2.83;;;1.33;;
13685;SDS011;6915;48.296;8.874;2023-03-26T12:47:40;2.10;;;1.30;;
13685;SDS011;6915;48.296;8.874;2023-03-26T12:50:11;2.57;;;0.90;;
13685;SDS011;6915;48.296;8.874;2023-03-26T12:52:50;1.83;;;0.60;;
13685;SDS011;6915;48.296;8.874;2023-03-26T12:55:35;1.83;;;0.80;;
13685;SDS011;6915;48.296;8.874;2023-03-26T12:58:17;1.57;;;0.67;;
13685;SDS011;6915;48.296;8.874;2023-03-26T13:01:04;1.70;;;0.90;;
13685;SDS011;6915;48.296;8.874;2023-03-26T13:42:39;2.93;;;0.47;;
13685;SDS011;6915;48.296;8.874;2023-03-26T13:45:24;1.57;;;0.50;;
13685;SDS011;6915;48.296;8.874;2023-03-26T13:48:06;2.97;;;0.67;;
13685;SDS011;6915;48.296;8.874;2023-03-26T13:50:43;2.83;;;0.53;;
13685;SDS011;6915;48.296;8.874;2023-03-26T13:53:19;1.60;;;0.70;;
13685;SDS011;6915;48.296;8.874;2023-03-26T13:55:52;1.20;;;0.60;;
13685;SDS011;6915;48.296;8.874;2023-03-26T13:58:27;1.37;;;0.47;;
13685;SDS011;6915;48.296;8.874;2023-03-26T14:01:01;3.73;;;0.73;;
13685;SDS011;6915;48.296;8.874;2023-03-26T14:05:36;1.37;;;0.50;;
13685;SDS011;6915;48.296;8.874;2023-03-26T14:08:14;1.73;;;0.50;;
13685;SDS011;6915;48.296;8.874;2023-03-26T14:10:51;1.23;;;0.50;;
13685;SDS011;6915;48.296;8.874;2023-03-26T14:13:32;2.47;;;0.60;;
13685;SDS011;6915;48.296;8.874;2023-03-26T14:16:08;1.47;;;0.53;;
13685;SDS011;6915;48.296;8.874;2023-03-26T14:18:43;2.10;;;0.70;;
13685;SDS011;6915;48.296;8.874;2023-03-26T14:21:39;3.50;;;0.80;;
13685;SDS011;6915;48.296;8.874;2023-03-26T14:24:42;1.93;;;0.77;;
13685;SDS011;6915;48.296;8.874;2023-03-26T14:27:37;2.17;;;0.80;;
13685;SDS011;6915;48.296;8.874;2023-03-26T14:33:25;3.87;;;0.80;;
13685;SDS011;6915;48.296;8.874;2023-03-26T14:39:34;2.50;;;0.80;;
13685;SDS011;6915;48.296;8.874;2023-03-26T14:42:17;1.60;;;0.70;;
13685;SDS011;6915;48.296;8.874;2023-03-26T14:45:02;2.20;;;0.80;;
13685;SDS011;6915;48.296;8.874;2023-03-26T14:47:53;2.90;;;1.00;;
13685;SDS011;6915;48.296;8.874;2023-03-26T14:50:50;1.43;;;0.70;;
13685;SDS011;6915;48.296;8.874;2023-03-26T14:53:30;3.63;;;0.83;;
13685;SDS011;6915;48.296;8.874;2023-03-26T14:56:14;2.90;;;0.87;;
13685;SDS011;6915;48.296;8.874;2023-03-26T20:57:46;1.47;;;0.60;;
13685;SDS011;6915;48.296;8.874;2023-03-26T21:00:15;2.53;;;0.77;;
13685;SDS011;6915;48.296;8.874;2023-03-26T21:02:47;2.10;;;1.13;;
13685;SDS011;6915;48.296;8.874;2023-03-26T21:05:18;3.13;;;1.20;;
13685;SDS011;6915;48.296;8.874;2023-03-26T21:07:49;1.70;;;0.93;;
13685;SDS011;6915;48.296;8.874;2023-03-26T21:10:17;1.40;;;0.60;;
13685;SDS011;6915;48.296;8.874;2023-03-26T21:12:49;1.23;;;0.60;;
13685;SDS011;6915;48.296;8.874;2023-03-26T21:15:22;2.23;;;0.80;;
13685;SDS011;6915;48.296;8.874;2023-03-26T21:17:53;0.77;;;0.60;;
13685;SDS011;6915;48.296;8.874;2023-03-26T21:20:24;0.60;;;0.50;;
13685;SDS011;6915;48.296;8.874;2023-03-26T21:22:56;0.83;;;0.70;;
13685;SDS011;6915;48.296;8.874;2023-03-26T21:25:30;1.93;;;0.73;;
13685;SDS011;6915;48.296;8.874;2023-03-26T21:28:08;1.77;;;0.70;;
13685;SDS011;6915;48.296;8.874;2023-03-26T21:30:42;2.97;;;1.00;;
13685;SDS011;6915;48.296;8.874;2023-03-26T21:33:12;1.47;;;0.60;;
13685;SDS011;6915;48.296;8.874;2023-03-26T21:35:41;1.37;;;0.60;;
13685;SDS011;6915;48.296;8.874;2023-03-26T21:38:15;1.33;;;0.50;;
13685;SDS011;6915;48.296;8.874;2023-03-26T21:40:47;1.03;;;0.50;;
13685;SDS011;6915;48.296;8.874;2023-03-26T21:43:19;0.80;;;0.50;;
13685;SDS011;6915;48.296;8.874;2023-03-26T21:45:49;0.83;;;0.50;;
13685;SDS011;6915;48.296;8.874;2023-03-26T21:48:20;0.50;;;0.40;;
13685;SDS011;6915;48.296;8.874;2023-03-26T21:50:49;0.63;;;0.50;;
13685;SDS011;6915;48.296;8.874;2023-03-26T21:53:18;1.20;;;0.50;;
13685;SDS011;6915;48.296;8.874;2023-03-26T21:55:52;2.40;;;0.70;;
13685;SDS011;6915;48.296;8.874;2023-03-26T21:58:29;1.03;;;0.67;;
13685;SDS011;6915;48.296;8.874;2023-03-26T22:01:17;1.37;;;0.60;;
13685;SDS011;6915;48.296;8.874;2023-03-26T22:03:57;1.50;;;0.50;;
13685;SDS011;6915;48.296;8.874;2023-03-26T22:06:30;1.50;;;0.63;;
13685;SDS011;6915;48.296;8.874;2023-03-26T22:09:05;1.53;;;0.80;;
13685;SDS011;6915;48.296;8.874;2023-03-26T22:11:36;0.83;;;0.50;;
13685;SDS011;6915;48.296;8.874;2023-03-26T22:14:07;1.37;;;0.60;;
13685;SDS011;6915;48.296;8.874;2023-03-26T22:16:37;1.57;;;0.43;;
13685;SDS011;6915;48.296;8.874;2023-03-26T22:19:06;2.77;;;0.63;;
13685;SDS011;6915;48.296;8.874;2023-03-26T22:21:36;0.93;;;0.60;;
13685;SDS011;6915;48.296;8.874;2023-03-26T22:24:05;1.73;;;0.63;;
13685;SDS011;6915;48.296;8.874;2023-03-26T22:26:34;2.17;;;1.00;;
13685;SDS011;6915;48.296;8.874;2023-03-26T22:29:03;2.00;;;0.80;;
13685;SDS011;6915;48.296;8.874;2023-03-26T22:31:35;0.70;;;0.60;;
13685;SDS011;6915;48.296;8.874;2023-03-26T22:34:05;0.83;;;0.60;;
13685;SDS011;6915;48.296;8.874;2023-03-26T22:36:34;0.77;;;0.60;;
13685;SDS011;6915;48.296;8.874;2023-03-26T22:39:03;1.27;;;0.70;;
13685;SDS011;6915;48.296;8.874;2023-03-26T22:41:32;1.23;;;0.60;;
13685;SDS011;6915;48.296;8.874;2023-03-26T22:44:01;2.40;;;0.80;;
13685;SDS011;6915;48.296;8.874;2023-03-26T22:46:30;1.30;;;0.70;;
13685;SDS011;6915;48.296;8.874;2023-03-26T22:49:00;1.80;;;0.80;;
13685;SDS011;6915;48.296;8.874;2023-03-26T22:51:28;1.10;;;0.60;;
13685;SDS011;6915;48.296;8.874;2023-03-26T22:53:57;1.00;;;0.80;;
13685;SDS011;6915;48.296;8.874;2023-03-26T22:56:26;3.07;;;0.53;;
13685;SDS011;6915;48.296;8.874;2023-03-26T22:58:57;1.33;;;0.57;;
13685;SDS011;6915;48.296;8.874;2023-03-26T23:01:25;0.90;;;0.50;;
13685;SDS011;6915;48.296;8.874;2023-03-26T23:03:54;1.00;;;0.50;;
13685;SDS011;6915;48.296;8.874;2023-03-26T23:06:24;0.93;;;0.60;;
13685;SDS011;6915;48.296;8.874;2023-03-26T23:08:52;2.37;;;0.50;;
13685;SDS011;6915;48.296;8.874;2023-03-26T23:11:21;1.70;;;0.40;;
13685;SDS011;6915;48.296;8.874;2023-03-26T23:13:50;2.23;;;0.50;;
13685;SDS011;6915;48.296;8.874;2023-03-26T23:16:19;0.63;;;0.50;;
13685;SDS011;6915;48.296;8.874;2023-03-26T23:18:48;2.23;;;0.53;;
13685;SDS011;6915;48.296;8.874;2023-03-26T23:21:17;0.93;;;0.50;;
13685;SDS011;6915;48.296;8.874;2023-03-26T23:23:48;3.17;;;0.50;;
13685;SDS011;6915;48.296;8.874;2023-03-26T23:26:17;1.13;;;0.50;;
13685;SDS011;6915;48.296;8.874;2023-03-26T23:28:46;0.70;;;0.37;;
13685;SDS011;6915;48.296;8.874;2023-03-26T23:31:15;2.07;;;0.60;;
13685;SDS011;6915;48.296;8.874;2023-03-26T23:33:44;2.67;;;0.60;;
13685;SDS011;6915;48.296;8.874;2023-03-26T23:36:14;1.00;;;0.50;;
13685;SDS011;6915;48.296;8.874;2023-03-26T23:38:44;1.53;;;0.40;;
13685;SDS011;6915;48.296;8.874;2023-03-26T23:41:16;1.43;;;0.50;;
13685;SDS011;6915;48.296;8.874;2023-03-26T23:43:46;1.87;;;0.40;;
13685;SDS011;6915;48.296;8.874;2023-03-26T23:46:17;1.30;;;0.40;;
13685;SDS011;6915;48.296;8.874;2023-03-26T23:48:47;0.87;;;0.40;;
13685;SDS011;6915;48.296;8.874;2023-03-26T23:51:16;0.47;;;0.30;;
13685;SDS011;6915;48.296;8.874;2023-03-26T23:53:45;0.53;;;0.50;;
13685;SDS011;6915;48.296;8.874;2023-03-26T23:56:16;1.97;;;0.60;;
13685;SDS011;6915;48.296;8.874;2023-03-26T23:58:44;0.60;;;0.40;;
